Time;durP1;ratioP1;P1;durP2;ratioP2;P2;SDS_P1;SDS_P2;PMS_P1;PMS_P2;Temp;Humidity;BMP_temperature;BMP_pressure;BME280_temperature;BME280_humidity;BME280_pressure;Samples;Min_cycle;Max_cycle;Signal;HPM_P1;HPM_P2
2021/04/14 00:00:41;;;;;;;4.87;3.15;;;;;;;21.35;50.09;100317.64;1765041;80;21166;-57
2021/04/14 00:03:22;;;;;;;5.20;3.27;;;;;;;21.34;50.10;100318.81;1785827;78;21155;-57
2021/04/14 00:05:49;;;;;;;5.00;3.08;;;;;;;21.34;50.10;100324.34;1796300;78;21041;-57
2021/04/14 00:08:16;;;;;;;4.42;2.92;;;;;;;21.32;50.09;100318.31;1792650;78;21362;-57
2021/04/14 00:10:42;;;;;;;5.83;2.75;;;;;;;21.30;50.09;100324.17;1778725;79;21141;-57
2021/04/14 00:13:13;;;;;;;4.90;2.80;;;;;;;21.29;50.07;100319.00;1779784;79;21164;-58
2021/04/14 00:15:43;;;;;;;4.65;3.02;;;;;;;21.28;50.08;100322.33;1781145;79;21317;-57
2021/04/14 00:18:10;;;;;;;4.05;2.92;;;;;;;21.27;50.07;100319.89;1781303;79;21312;-57
2021/04/14 00:20:36;;;;;;;4.22;3.08;;;;;;;21.26;50.05;100325.98;1791436;79;21687;-56
2021/04/14 00:23:04;;;;;;;5.75;3.52;;;;;;;21.26;50.06;100323.22;1793419;79;21209;-57
2021/04/14 00:25:33;;;;;;;4.95;3.25;;;;;;;21.27;50.05;100333.15;1794897;79;21153;-57
2021/04/14 00:28:00;;;;;;;4.50;3.17;;;;;;;21.29;50.03;100332.83;1799291;78;21161;-56
2021/04/14 00:30:28;;;;;;;5.00;3.30;;;;;;;21.29;49.99;100332.26;1795167;79;21626;-57
2021/04/14 00:32:55;;;;;;;4.72;3.35;;;;;;;21.30;49.96;100333.08;1794184;79;21177;-57
2021/04/14 00:35:23;;;;;;;3.67;3.02;;;;;;;21.29;49.91;100332.83;1787076;78;21147;-57
2021/04/14 00:37:50;;;;;;;4.05;3.10;;;;;;;21.28;49.90;100330.62;1792486;79;21142;-57
2021/04/14 00:40:27;;;;;;;4.85;2.83;;;;;;;21.28;49.88;100331.20;1794718;79;21170;-57
2021/04/14 00:42:55;;;;;;;5.85;3.77;;;;;;;21.28;49.87;100325.66;1791697;79;21788;-57
2021/04/14 00:45:22;;;;;;;5.28;3.10;;;;;;;21.27;49.86;100324.03;1767253;80;21225;-57
2021/04/14 00:47:49;;;;;;;4.45;3.27;;;;;;;21.25;49.86;100326.34;1784919;79;21237;-56
2021/04/14 00:50:17;;;;;;;4.47;3.12;;;;;;;21.25;49.83;100319.42;1770387;80;21774;-56
2021/04/14 00:52:44;;;;;;;4.62;3.17;;;;;;;21.23;49.84;100313.40;1772064;79;21240;-57
2021/04/14 00:55:14;;;;;;;4.95;3.50;;;;;;;21.22;49.83;100311.20;1778092;79;22098;-57
2021/04/14 00:57:41;;;;;;;5.08;3.45;;;;;;;21.21;49.83;100309.60;1772133;79;21150;-57
2021/04/14 01:00:18;;;;;;;6.58;3.20;;;;;;;21.19;49.84;100306.91;1778488;79;21217;-57
2021/04/14 01:02:45;;;;;;;3.98;3.00;;;;;;;21.18;49.83;100303.90;1768854;80;21637;-57
2021/04/14 01:05:13;;;;;;;5.08;3.30;;;;;;;21.17;49.81;100302.30;1770616;79;21111;-57
2021/04/14 01:07:40;;;;;;;4.95;3.35;;;;;;;21.16;49.81;100298.72;1775557;79;21622;-57
2021/04/14 01:10:08;;;;;;;6.17;3.42;;;;;;;21.15;49.82;100300.42;1766489;79;21149;-57
2021/04/14 01:12:35;;;;;;;5.53;3.60;;;;;;;21.13;49.82;100295.22;1774674;79;21460;-57
2021/04/14 01:15:03;;;;;;;5.28;3.62;;;;;;;21.13;49.83;100293.83;1777514;79;21213;-57
2021/04/14 01:17:30;;;;;;;5.78;3.67;;;;;;;21.14;49.81;100287.73;1767810;79;21170;-57
2021/04/14 01:19:56;;;;;;;3.58;3.22;;;;;;;21.14;49.81;100291.31;1764537;80;21355;-57
2021/04/14 01:22:23;;;;;;;4.08;3.42;;;;;;;21.15;49.79;100279.68;1760348;80;21173;-57
2021/04/14 01:24:50;;;;;;;5.62;3.83;;;;;;;21.17;49.76;100284.32;1758633;80;21169;-57
2021/04/14 01:27:16;;;;;;;5.45;3.45;;;;;;;21.16;49.72;100273.82;1760586;80;21198;-57
2021/04/14 01:29:43;;;;;;;4.60;3.37;;;;;;;21.16;49.71;100266.09;1761497;80;21178;-57
2021/04/14 01:32:10;;;;;;;6.83;3.90;;;;;;;21.16;49.68;100260.56;1760658;80;21183;-57
2021/04/14 01:34:37;;;;;;;6.00;4.00;;;;;;;21.14;49.68;100264.22;1757763;80;21162;-57
2021/04/14 01:37:04;;;;;;;5.58;3.40;;;;;;;21.13;49.66;100255.10;1764064;80;21638;-57
2021/04/14 01:39:30;;;;;;;5.37;4.17;;;;;;;21.13;49.65;100259.85;1766362;80;21168;-57
2021/04/14 01:41:57;;;;;;;4.95;3.45;;;;;;;21.13;49.63;100262.62;1785167;78;21193;-57
2021/04/14 01:44:23;;;;;;;5.58;3.98;;;;;;;21.12;49.62;100269.26;1774729;80;21194;-58
2021/04/14 01:46:50;;;;;;;4.92;3.25;;;;;;;21.11;49.61;100265.68;1764112;80;21196;-56
2021/04/14 01:49:17;;;;;;;5.75;3.50;;;;;;;21.12;49.60;100264.58;1778943;79;21201;-56
2021/04/14 01:51:43;;;;;;;5.00;3.60;;;;;;;21.14;49.56;100265.60;1770522;80;21138;-56
2021/04/14 01:54:11;;;;;;;4.17;3.00;;;;;;;21.16;49.52;100273.01;1771220;80;21155;-56
2021/04/14 01:56:39;;;;;;;4.30;3.10;;;;;;;21.19;49.48;100271.77;1772176;79;21190;-57
2021/04/14 01:59:06;;;;;;;4.67;3.10;;;;;;;21.23;49.40;100274.09;1767619;80;21018;-57
2021/04/14 02:01:32;;;;;;;6.20;4.62;;;;;;;21.24;49.34;100257.74;1764659;80;21179;-56
2021/04/14 02:03:59;;;;;;;5.05;3.30;;;;;;;21.27;49.30;100252.10;1768766;80;21184;-57
2021/04/14 02:06:26;;;;;;;3.87;2.80;;;;;;;21.32;49.25;100257.44;1768246;80;21660;-57
2021/04/14 02:08:53;;;;;;;4.17;3.15;;;;;;;21.34;49.24;100249.03;1769541;80;21255;-57
2021/04/14 02:11:20;;;;;;;5.65;3.00;;;;;;;21.36;49.18;100254.24;1769399;79;21644;-57
2021/04/14 02:13:46;;;;;;;3.85;2.80;;;;;;;21.38;49.15;100254.16;1775762;80;21550;-56
2021/04/14 02:16:20;;;;;;;4.10;2.70;;;;;;;21.41;49.13;100256.25;1768751;80;21197;-57
2021/04/14 02:18:52;;;;;;;4.42;3.27;;;;;;;21.46;49.11;100257.20;1769503;79;21663;-57
2021/04/14 02:21:20;;;;;;;4.25;3.20;;;;;;;21.49;49.07;100253.75;1772942;79;21626;-57
2021/04/14 02:23:47;;;;;;;3.80;2.52;;;;;;;21.53;49.05;100252.73;1771208;79;21137;-57
2021/04/14 02:26:17;;;;;;;4.95;3.10;;;;;;;21.56;49.00;100253.44;1774567;79;21596;-57
2021/04/14 02:28:45;;;;;;;4.58;3.40;;;;;;;21.59;48.97;100245.87;1776024;79;21172;-57
2021/04/14 02:31:18;;;;;;;4.97;3.33;;;;;;;21.62;48.92;100245.75;1777953;79;21153;-57
2021/04/14 02:33:45;;;;;;;4.53;3.02;;;;;;;21.65;48.87;100254.19;1764627;80;21198;-57
2021/04/14 02:36:11;;;;;;;5.35;3.17;;;;;;;21.67;48.83;100254.67;1771473;79;21189;-56
2021/04/14 02:38:38;;;;;;;3.95;2.83;;;;;;;21.67;48.82;100262.98;1773889;79;21217;-57
2021/04/14 02:41:05;;;;;;;4.35;2.95;;;;;;;21.69;48.78;100260.67;1770932;80;21953;-57
2021/04/14 02:43:31;;;;;;;4.12;3.05;;;;;;;21.69;48.76;100256.52;1775004;78;21130;-56
2021/04/14 02:45:58;;;;;;;3.98;3.00;;;;;;;21.70;48.74;100258.71;1792548;78;21247;-57
2021/04/14 02:48:25;;;;;;;4.00;2.95;;;;;;;21.69;48.74;100253.75;1763259;80;21202;-57
2021/04/14 02:50:52;;;;;;;4.55;3.25;;;;;;;21.69;48.71;100252.36;1799189;78;21266;-57
2021/04/14 02:53:18;;;;;;;4.62;3.12;;;;;;;21.69;48.69;100238.52;1797731;78;21153;-57
2021/04/14 02:55:45;;;;;;;4.85;2.72;;;;;;;21.69;48.70;100241.86;1779562;78;21250;-57
2021/04/14 02:58:12;;;;;;;5.30;3.17;;;;;;;21.70;48.68;100243.48;1784153;78;21238;-57
2021/04/14 03:00:38;;;;;;;4.87;3.50;;;;;;;21.68;48.67;100242.45;1780156;79;21210;-56
2021/04/14 03:03:05;;;;;;;4.90;3.50;;;;;;;21.68;48.65;100247.18;1775540;79;21613;-56
2021/04/14 03:05:34;;;;;;;4.22;3.10;;;;;;;21.68;48.67;100238.88;1769159;79;21189;-56
2021/04/14 03:08:00;;;;;;;6.58;3.47;;;;;;;21.67;48.65;100246.94;1765187;80;21158;-56
2021/04/14 03:10:28;;;;;;;5.00;3.22;;;;;;;21.65;48.66;100245.06;1775127;79;21591;-55
2021/04/14 03:12:55;;;;;;;4.40;3.10;;;;;;;21.65;48.65;100248.65;1772874;79;21193;-56
2021/04/14 03:15:25;;;;;;;3.65;3.02;;;;;;;21.64;48.65;100249.79;1774912;79;21176;-56
2021/04/14 03:17:52;;;;;;;6.00;3.20;;;;;;;21.63;48.65;100246.00;1766130;79;21202;-55
2021/04/14 03:20:19;;;;;;;3.90;3.05;;;;;;;21.61;48.63;100251.05;1759447;80;21178;-56
2021/04/14 03:22:45;;;;;;;5.00;3.05;;;;;;;21.60;48.63;100254.98;1760993;80;21295;-56
2021/04/14 03:25:13;;;;;;;5.22;3.52;;;;;;;21.58;48.63;100262.23;1787551;79;21141;-56
2021/04/14 03:27:39;;;;;;;4.85;3.37;;;;;;;21.57;48.64;100265.33;1779211;80;21178;-55
2021/04/14 03:30:08;;;;;;;4.47;3.15;;;;;;;21.57;48.64;100264.75;1770294;80;21169;-56
2021/04/14 03:32:35;;;;;;;4.72;3.27;;;;;;;21.59;48.66;100264.43;1772936;80;22142;-56
2021/04/14 03:35:02;;;;;;;5.15;3.08;;;;;;;21.58;48.63;100266.38;1770595;80;21205;-56
2021/04/14 03:37:28;;;;;;;4.60;3.22;;;;;;;21.58;48.61;100262.23;1768198;80;21649;-55
2021/04/14 03:39:55;;;;;;;5.53;3.40;;;;;;;21.59;48.57;100265.24;1769651;80;21186;-56
2021/04/14 03:42:22;;;;;;;3.47;2.72;;;;;;;21.58;48.57;100273.30;1764904;80;21133;-56
2021/04/14 03:44:56;;;;;;;4.40;3.33;;;;;;;21.58;48.56;100273.88;1763688;80;21406;-56
2021/04/14 03:47:19;;;;;;;6.75;3.83;;;;;;;21.57;48.56;100274.44;1769422;80;21279;-55
2021/04/14 03:49:46;;;;;;;4.62;3.50;;;;;;;21.57;48.55;100277.78;1770126;80;21193;-56
2021/04/14 03:52:12;;;;;;;4.85;3.00;;;;;;;21.55;48.51;100269.84;1765908;80;21363;-56
2021/04/14 03:54:39;;;;;;;4.72;3.52;;;;;;;21.54;48.52;100264.63;1771416;80;21212;-56
2021/04/14 03:57:24;;;;;;;5.20;3.20;;;;;;;21.54;48.53;100264.63;1762062;80;21173;-56
2021/04/14 03:59:50;;;;;;;5.78;3.52;;;;;;;21.51;48.52;100261.16;1784889;80;21186;-56
2021/04/14 04:02:17;;;;;;;4.62;3.25;;;;;;;21.49;48.53;100263.44;1786347;78;21257;-56
2021/04/14 04:04:44;;;;;;;4.22;3.12;;;;;;;21.47;48.53;100262.41;1784668;78;21114;-56
2021/04/14 04:07:10;;;;;;;4.30;3.20;;;;;;;21.46;48.55;100266.31;1751507;79;21175;-55
2021/04/14 04:09:37;;;;;;;4.00;2.85;;;;;;;21.47;48.54;100267.94;1776319;80;21206;-56
2021/04/14 04:12:08;;;;;;;3.92;3.02;;;;;;;21.47;48.54;100265.17;1771100;80;21134;-56
2021/04/14 04:14:35;;;;;;;5.62;3.55;;;;;;;21.49;48.50;100271.16;1766544;80;21084;-56
2021/04/14 04:17:02;;;;;;;4.10;3.17;;;;;;;21.51;48.48;100272.23;1766720;80;21205;-56
2021/04/14 04:19:29;;;;;;;4.70;3.10;;;;;;;21.53;48.46;100272.68;1778003;79;22522;-56
2021/04/14 04:21:55;;;;;;;4.92;3.25;;;;;;;21.55;48.44;100268.45;1780093;79;21250;-56
2021/04/14 04:24:22;;;;;;;5.60;3.30;;;;;;;21.57;48.43;100272.25;1775191;79;21667;-56
2021/04/14 04:26:49;;;;;;;5.00;3.60;;;;;;;21.59;48.42;100276.89;1778077;79;21198;-56
2021/04/14 04:29:15;;;;;;;4.40;3.08;;;;;;;21.60;48.38;100273.77;1779788;79;21362;-56
2021/04/14 04:31:42;;;;;;;4.28;2.92;;;;;;;21.63;48.38;100279.22;1775809;79;21208;-56
2021/04/14 04:34:08;;;;;;;4.42;3.05;;;;;;;21.65;48.37;100283.83;1776533;79;21290;-57
2021/04/14 04:36:35;;;;;;;4.33;3.25;;;;;;;21.68;48.37;100278.45;1783506;79;22188;-57
2021/04/14 04:39:03;;;;;;;6.22;3.27;;;;;;;21.71;48.35;100284.69;1771316;79;21657;-56
2021/04/14 04:41:30;;;;;;;5.62;3.65;;;;;;;21.76;48.37;100289.22;1781912;79;21178;-55
2021/04/14 04:43:56;;;;;;;6.65;3.58;;;;;;;21.78;48.38;100286.33;1778114;79;21165;-56
2021/04/14 04:46:23;;;;;;;4.75;3.50;;;;;;;21.81;48.41;100282.88;1775339;79;21190;-55
2021/04/14 04:48:50;;;;;;;6.97;4.05;;;;;;;21.83;48.46;100287.52;1766401;79;21193;-56
2021/04/14 04:51:16;;;;;;;9.73;4.12;;;;;;;21.85;48.50;100285.20;1777142;79;21261;-56
2021/04/14 04:53:43;;;;;;;10.65;4.78;;;;;;;21.87;48.50;100289.84;1761263;79;21124;-61
2021/04/14 04:56:10;;;;;;;7.37;4.03;;;;;;;21.91;48.57;100286.39;1775683;79;21286;-55
2021/04/14 04:58:36;;;;;;;12.60;5.83;;;;;;;21.94;48.61;100289.32;1773529;79;21189;-55
2021/04/14 05:01:03;;;;;;;13.72;5.47;;;;;;;21.97;48.65;100294.20;1777712;79;21638;-56
2021/04/14 05:03:30;;;;;;;7.45;4.53;;;;;;;21.99;48.69;100289.69;1774819;79;21186;-56
2021/04/14 05:05:58;;;;;;;5.40;3.58;;;;;;;22.01;48.74;100286.84;1762500;79;21221;-55
2021/04/14 05:08:24;;;;;;;7.12;4.28;;;;;;;22.02;48.77;100289.03;1782393;79;21529;-55
2021/04/14 05:10:53;;;;;;;7.20;4.33;;;;;;;22.01;48.81;100284.63;1774572;79;21219;-55
2021/04/14 05:13:21;;;;;;;11.03;4.05;;;;;;;22.02;48.84;100287.08;1772411;79;21761;-56
2021/04/14 05:15:47;;;;;;;6.05;4.30;;;;;;;22.02;48.89;100289.03;1774816;79;21348;-56
2021/04/14 05:18:14;;;;;;;6.33;4.37;;;;;;;22.03;48.93;100292.02;1777993;79;21708;-57
2021/04/14 05:20:40;;;;;;;6.28;3.77;;;;;;;22.03;48.97;100285.09;1771000;79;21585;-56
2021/04/14 05:23:08;;;;;;;6.80;3.98;;;;;;;22.03;49.05;100278.98;1775708;79;21146;-56
2021/04/14 05:25:38;;;;;;;5.15;3.52;;;;;;;22.04;49.08;100285.33;1776614;79;21228;-57
2021/04/14 05:28:13;;;;;;;8.07;4.27;;;;;;;22.03;49.14;100289.25;1792639;78;21662;-56
2021/04/14 05:30:34;;;;;;;5.83;4.10;;;;;;;22.03;49.17;100283.13;1798242;78;21141;-57
2021/04/14 05:33:00;;;;;;;9.60;4.55;;;;;;;22.02;49.19;100283.49;1793342;78;21247;-58
2021/04/14 05:35:27;;;;;;;8.50;4.53;;;;;;;22.01;49.26;100286.02;1798137;78;21555;-61
2021/04/14 05:37:53;;;;;;;9.03;5.53;;;;;;;22.00;49.36;100284.39;1776377;79;21236;-58
2021/04/14 05:40:22;;;;;;;9.45;5.10;;;;;;;21.98;49.47;100278.40;1777307;79;21290;-59
2021/04/14 05:42:49;;;;;;;8.68;5.03;;;;;;;21.93;49.58;100282.19;1780665;79;21596;-58
2021/04/14 05:45:24;;;;;;;6.00;4.67;;;;;;;21.92;49.66;100283.86;1776423;79;21162;-58
2021/04/14 05:47:51;;;;;;;8.70;5.42;;;;;;;21.86;49.76;100269.41;1781015;79;22488;-58
2021/04/14 05:50:22;;;;;;;8.93;5.53;;;;;;;21.83;49.86;100278.40;1776426;79;21305;-57
2021/04/14 05:52:48;;;;;;;8.25;4.70;;;;;;;21.80;49.94;100274.93;1777849;79;21229;-58
2021/04/14 05:55:15;;;;;;;6.20;4.65;;;;;;;21.77;50.02;100270.86;1776690;79;21246;-58
2021/04/14 05:57:42;;;;;;;7.95;4.50;;;;;;;21.75;50.07;100262.09;1748878;79;21243;-59
2021/04/14 06:00:13;;;;;;;8.40;5.08;;;;;;;21.74;50.11;100270.16;1782751;78;21121;-59
2021/04/14 06:02:42;;;;;;;8.35;4.72;;;;;;;21.73;50.17;100265.77;1788549;79;22180;-57
2021/04/14 06:05:11;;;;;;;8.10;4.67;;;;;;;21.71;50.18;100272.80;1783245;79;21202;-58
2021/04/14 06:07:38;;;;;;;7.22;4.80;;;;;;;21.68;50.20;100268.76;1772698;79;21190;-58
2021/04/14 06:10:06;;;;;;;8.83;5.22;;;;;;;21.66;50.24;100271.04;1775075;79;21185;-58
2021/04/14 06:12:33;;;;;;;9.53;4.75;;;;;;;21.63;50.28;100263.98;1778610;79;21116;-58
2021/04/14 06:14:59;;;;;;;5.97;4.50;;;;;;;21.61;50.31;100264.31;1780357;79;22147;-59
2021/04/14 06:17:26;;;;;;;9.23;4.90;;;;;;;21.59;50.35;100267.20;1777119;79;21380;-58
2021/04/14 06:19:52;;;;;;;8.20;5.37;;;;;;;21.56;50.37;100268.66;1779483;79;21141;-59
2021/04/14 06:22:19;;;;;;;5.97;4.42;;;;;;;21.54;50.42;100272.36;1780077;79;21189;-62
2021/04/14 06:24:45;;;;;;;7.17;5.22;;;;;;;21.52;50.47;100276.59;1781863;79;21513;-60
2021/04/14 06:27:17;;;;;;;10.85;6.53;;;;;;;21.52;50.52;100273.25;1781841;79;21212;-60
2021/04/14 06:29:40;;;;;;;7.22;5.15;;;;;;;21.54;50.54;100274.31;1788829;79;21260;-59
2021/04/14 06:32:07;;;;;;;10.30;5.55;;;;;;;21.57;50.55;100276.40;1784289;79;21133;-59
2021/04/14 06:34:33;;;;;;;10.20;5.58;;;;;;;21.60;50.53;100274.36;1783206;79;22305;-60
2021/04/14 06:37:00;;;;;;;20.40;10.08;;;;;;;21.63;50.50;100274.49;1777780;79;21603;-60
2021/04/14 06:39:32;;;;;;;12.20;5.35;;;;;;;21.68;50.51;100280.41;1779187;79;21207;-62
2021/04/14 06:42:22;;;;;;;8.60;5.20;;;;;;;21.71;50.51;100273.61;1774863;79;21204;-59
2021/04/14 06:45:02;;;;;;;8.45;4.75;;;;;;;21.77;50.49;100272.81;1779227;79;21214;-60
2021/04/14 06:47:54;;;;;;;6.78;4.47;;;;;;;21.82;50.46;100275.39;1786012;79;21254;-60
2021/04/14 06:50:32;;;;;;;12.13;6.00;;;;;;;21.85;50.45;100270.58;1802260;78;21192;-61
2021/04/14 06:53:36;;;;;;;13.35;7.70;;;;;;;21.90;50.46;100270.95;1780845;79;21216;-59
2021/04/14 06:56:09;;;;;;;6.42;4.58;;;;;;;21.94;50.45;100274.69;1780136;79;21225;-59
2021/04/14 06:58:47;;;;;;;6.25;4.72;;;;;;;21.98;50.43;100281.17;1774854;79;21139;-61
2021/04/14 07:01:19;;;;;;;7.35;4.78;;;;;;;22.01;50.41;100279.09;1765654;79;21245;-60
2021/04/14 07:04:24;;;;;;;6.55;4.67;;;;;;;22.04;50.43;100278.41;1741850;79;21133;-59
2021/04/14 07:06:50;;;;;;;7.35;5.25;;;;;;;22.06;50.41;100281.09;1773745;79;21275;-60
2021/04/14 07:09:37;;;;;;;7.40;4.47;;;;;;;22.08;50.42;100284.31;1776550;79;21214;-60
2021/04/14 07:12:10;;;;;;;7.15;4.90;;;;;;;22.09;50.44;100279.59;1778782;79;21201;-60
2021/04/14 07:14:37;;;;;;;7.90;5.10;;;;;;;22.12;50.42;100281.67;1779169;79;21221;-60
2021/04/14 07:17:27;;;;;;;5.78;4.42;;;;;;;22.13;50.38;100280.53;1779249;78;21996;-60
2021/04/14 07:20:09;;;;;;;8.60;5.25;;;;;;;22.15;50.36;100281.02;1802698;78;21198;-59
2021/04/14 07:23:14;;;;;;;7.03;4.95;;;;;;;22.15;50.31;100281.80;1802128;78;21159;-61
2021/04/14 07:26:03;;;;;;;8.75;4.97;;;;;;;22.15;50.29;100284.56;1781393;78;21217;-58
2021/04/14 07:29:03;;;;;;;8.33;5.30;;;;;;;22.16;50.24;100286.77;1778113;79;21503;-59
2021/04/14 07:31:41;;;;;;;6.78;5.15;;;;;;;22.13;50.21;100286.88;1789738;79;21215;-57
2021/04/14 07:34:13;;;;;;;7.30;5.33;;;;;;;22.10;50.22;100294.50;1778877;79;22231;-58
2021/04/14 07:37:16;;;;;;;7.70;4.62;;;;;;;22.07;50.25;100287.41;1784254;79;21619;-57
2021/04/14 07:39:51;;;;;;;6.60;5.00;;;;;;;22.04;50.26;100288.91;1777642;79;21245;-58
2021/04/14 07:42:42;;;;;;;5.97;4.47;;;;;;;22.03;50.30;100301.71;1774170;79;21213;-57
2021/04/14 07:45:32;;;;;;;8.13;5.25;;;;;;;22.00;50.30;100296.28;1775951;79;21159;-58
2021/04/14 07:48:09;;;;;;;5.65;4.22;;;;;;;21.99;50.34;100297.42;1779764;79;22175;-58
2021/04/14 07:50:49;;;;;;;6.05;4.35;;;;;;;21.99;50.31;100295.23;1778167;79;21213;-57
2021/04/14 07:53:33;;;;;;;6.08;3.92;;;;;;;21.98;50.29;100300.56;1778942;79;21196;-58
2021/04/14 07:56:18;;;;;;;5.42;4.53;;;;;;;21.96;50.30;100305.04;1786474;79;21154;-57
2021/04/14 07:58:42;;;;;;;7.78;4.58;;;;;;;21.94;50.31;100301.00;1781725;79;21186;-57
2021/04/14 08:01:24;;;;;;;8.68;4.83;;;;;;;21.91;50.34;100309.36;1765320;79;21284;-57
2021/04/14 08:03:52;;;;;;;7.25;4.72;;;;;;;21.88;50.40;100302.55;1787205;79;21210;-57
2021/04/14 08:06:29;;;;;;;7.10;4.33;;;;;;;21.85;50.42;100306.58;1780545;79;21232;-57
2021/04/14 08:08:56;;;;;;;7.50;4.75;;;;;;;21.84;50.46;100313.26;1769557;79;21173;-58
2021/04/14 08:11:31;;;;;;;6.67;4.55;;;;;;;21.81;50.49;100309.79;1785551;79;21544;-57
2021/04/14 08:14:19;;;;;;;7.05;4.55;;;;;;;21.77;50.56;100309.62;1777715;79;21190;-58
2021/04/14 08:16:50;;;;;;;5.35;4.17;;;;;;;21.75;50.60;100308.35;1773804;79;21248;-58
2021/04/14 08:19:27;;;;;;;7.15;4.65;;;;;;;21.72;50.63;100306.27;1788641;78;21215;-59
2021/04/14 08:22:18;;;;;;;4.92;3.83;;;;;;;21.70;50.68;100308.55;1772427;79;21200;-59
2021/04/14 08:25:02;;;;;;;7.35;4.78;;;;;;;21.66;50.70;100300.68;1802823;78;21205;-58
2021/04/14 08:30:24;;;;;;;5.60;4.35;;;;;;;21.58;50.76;100315.39;1733683;81;21214;-59
2021/04/14 08:32:58;;;;;;;6.05;4.30;;;;;;;21.54;50.79;100312.49;1757788;80;21228;-59
2021/04/14 08:35:35;;;;;;;5.58;4.78;;;;;;;21.50;50.82;100318.47;1763432;79;21197;-59
2021/04/14 08:38:10;;;;;;;6.22;4.37;;;;;;;21.48;50.85;100315.20;1765724;80;21125;-60
2021/04/14 08:40:48;;;;;;;5.05;4.25;;;;;;;21.45;50.88;100320.03;1772015;80;21550;-59
2021/04/14 08:43:23;;;;;;;5.70;4.17;;;;;;;21.43;50.91;100321.53;1751822;80;21509;-59
2021/04/14 08:45:50;;;;;;;4.90;3.83;;;;;;;21.43;50.95;100322.91;1748286;79;21484;-59
2021/04/14 08:48:30;;;;;;;4.60;3.65;;;;;;;21.42;50.96;100317.95;1771567;80;21129;-59
2021/04/14 08:51:04;;;;;;;4.42;3.40;;;;;;;21.46;50.97;100320.28;1750254;80;21589;-59
2021/04/14 08:53:36;;;;;;;4.80;3.33;;;;;;;21.49;50.91;100319.60;1765564;79;21251;-58
2021/04/14 08:56:04;;;;;;;4.33;3.12;;;;;;;21.55;50.83;100319.66;1770525;80;21521;-59
2021/04/14 08:58:30;;;;;;;3.72;2.98;;;;;;;21.57;50.78;100322.89;1761416;79;21197;-58
2021/04/14 09:00:58;;;;;;;4.78;3.10;;;;;;;21.60;50.72;100323.59;1769807;79;21245;-59
2021/04/14 09:03:29;;;;;;;6.50;3.25;;;;;;;21.62;50.67;100322.70;1768773;80;21146;-59
2021/04/14 09:05:55;;;;;;;3.72;2.62;;;;;;;21.67;50.62;100316.16;1770032;79;21256;-59
2021/04/14 09:08:25;;;;;;;4.37;3.08;;;;;;;21.67;50.57;100322.50;1765481;80;21204;-59
2021/04/14 09:11:00;;;;;;;4.05;2.90;;;;;;;21.71;50.55;100325.41;1765938;80;21182;-59
2021/04/14 09:13:46;;;;;;;4.40;3.05;;;;;;;21.72;50.48;100326.46;1763221;80;21136;-58
2021/04/14 09:16:15;;;;;;;4.45;3.20;;;;;;;21.74;50.44;100325.54;1760526;80;21192;-57
2021/04/14 09:18:44;;;;;;;4.30;2.95;;;;;;;21.76;50.39;100321.06;1762312;80;21200;-57
2021/04/14 09:21:18;;;;;;;4.20;2.90;;;;;;;21.77;50.36;100324.04;1744387;79;21243;-57
2021/04/14 09:23:55;;;;;;;4.28;3.05;;;;;;;21.77;50.33;100326.23;1773520;79;21153;-57
2021/04/14 09:26:37;;;;;;;4.58;3.05;;;;;;;21.77;50.30;100324.85;1742108;80;21258;-58
2021/04/14 09:29:45;;;;;;;3.80;2.85;;;;;;;21.76;50.27;100324.64;1776241;78;21215;-57
2021/04/14 09:32:13;;;;;;;4.80;3.08;;;;;;;21.77;50.24;100328.20;1765508;78;22087;-57
2021/04/14 09:34:48;;;;;;;4.30;3.30;;;;;;;21.74;50.22;100343.53;1765748;78;21233;-56
2021/04/14 09:37:22;;;;;;;3.92;2.87;;;;;;;21.72;50.19;100339.49;1761919;78;21155;-58
2021/04/14 09:40:00;;;;;;;5.70;3.35;;;;;;;21.71;50.21;100343.41;1760277;78;21253;-58
2021/04/14 09:42:37;;;;;;;4.22;2.70;;;;;;;21.69;50.21;100341.53;1764381;78;21202;-57
2021/04/14 09:45:29;;;;;;;3.83;3.00;;;;;;;21.67;50.24;100339.69;1764834;78;21201;-57
2021/04/14 09:47:57;;;;;;;3.72;2.67;;;;;;;21.65;50.24;100338.63;1770660;78;21571;-58
2021/04/14 09:50:35;;;;;;;3.20;2.50;;;;;;;21.64;50.24;100347.28;1762604;78;21195;-57
2021/04/14 09:53:32;;;;;;;3.37;2.70;;;;;;;21.61;50.26;100348.75;1762890;78;21179;-58
2021/04/14 09:56:15;;;;;;;5.80;2.50;;;;;;;21.60;50.25;100346.34;1764036;78;21247;-57
2021/04/14 09:58:49;;;;;;;4.15;2.27;;;;;;;21.55;50.22;100354.26;1766634;78;22166;-57
2021/04/14 10:01:31;;;;;;;3.10;2.75;;;;;;;21.53;50.24;100355.72;1765862;78;21177;-57
2021/04/14 10:04:18;;;;;;;4.25;2.60;;;;;;;21.49;50.22;100351.43;1765267;78;21560;-57
2021/04/14 10:06:46;;;;;;;3.70;2.58;;;;;;;21.48;50.22;100355.91;1764612;79;21187;-57
2021/04/14 10:09:27;;;;;;;3.47;2.45;;;;;;;21.47;50.23;100350.97;1764912;78;21223;-57
2021/04/14 10:11:53;;;;;;;;;;;;;;;21.48;50.21;100356.72;1770380;78;21567;-58
2021/04/14 10:14:23;;;;;;;2.92;1.98;;;;;;;21.47;50.21;100350.97;1767151;79;20619;-57
2021/04/14 10:16:51;;;;;;;2.95;2.00;;;;;;;21.49;50.15;100355.58;1772120;78;21297;-57
2021/04/14 10:19:30;;;;;;;2.35;1.70;;;;;;;21.50;50.12;100361.36;1734392;80;21169;-57
2021/04/14 10:21:58;;;;;;;2.37;1.80;;;;;;;21.53;50.05;100362.08;1769022;79;21674;-57
2021/04/14 10:24:25;;;;;;;2.65;1.55;;;;;;;21.55;50.00;100358.41;1730581;80;21275;-58
2021/04/14 10:26:54;;;;;;;2.22;1.42;;;;;;;21.58;49.94;100370.19;1771421;79;21276;-58
2021/04/14 10:29:24;;;;;;;2.65;1.40;;;;;;;21.58;49.88;100363.27;1766173;79;21232;-58
2021/04/14 10:31:51;;;;;;;2.95;1.70;;;;;;;21.61;49.84;100366.74;1768578;79;21639;-58
2021/04/14 10:34:34;;;;;;;2.87;1.90;;;;;;;21.64;49.80;100361.91;1767921;79;21201;-58
2021/04/14 10:37:15;;;;;;;2.20;1.57;;;;;;;21.65;49.72;100370.46;1767045;79;21468;-57
2021/04/14 10:39:41;;;;;;;2.00;1.50;;;;;;;21.67;49.67;100375.67;1769835;79;21216;-58
2021/04/14 10:42:19;;;;;;;2.17;1.40;;;;;;;21.65;49.55;100369.08;1771383;79;21185;-57
2021/04/14 10:44:46;;;;;;;2.05;1.45;;;;;;;21.71;49.56;100378.01;1768458;79;22195;-58
2021/04/14 10:47:25;;;;;;;2.83;1.52;;;;;;;21.73;49.49;100375.13;1738401;81;21228;-58
2021/04/14 10:50:00;;;;;;;2.10;1.35;;;;;;;21.75;49.45;100373.42;1736404;81;21464;-57
2021/04/14 10:52:28;;;;;;;2.00;1.37;;;;;;;21.79;49.38;100378.52;1735692;81;21173;-57
2021/04/14 10:55:02;;;;;;;2.42;1.40;;;;;;;21.79;49.30;100371.03;1736368;81;21159;-58
2021/04/14 10:57:35;;;;;;;1.90;1.17;;;;;;;21.80;49.24;100383.74;1734660;81;21189;-58
2021/04/14 11:00:12;;;;;;;1.87;1.22;;;;;;;21.82;49.20;100389.73;1736148;81;21213;-56
2021/04/14 11:02:43;;;;;;;1.87;1.35;;;;;;;21.85;49.13;100384.91;1735192;81;21626;-56
2021/04/14 11:05:13;;;;;;;2.40;1.45;;;;;;;21.86;49.08;100392.64;1728902;81;21690;-56
2021/04/14 11:07:41;;;;;;;2.30;1.50;;;;;;;21.87;49.04;100394.27;1734266;81;21256;-57
2021/04/14 11:10:11;;;;;;;1.92;1.20;;;;;;;21.88;48.98;100391.17;1740305;80;21438;-57
2021/04/14 11:12:45;;;;;;;1.67;1.30;;;;;;;21.90;48.96;100395.58;1740332;80;21657;-57
2021/04/14 11:15:19;;;;;;;2.67;1.52;;;;;;;21.91;48.91;100395.79;1737561;81;22136;-58
2021/04/14 11:17:57;;;;;;;2.80;1.87;;;;;;;21.91;48.87;100384.71;1737901;81;21228;-57
2021/04/14 11:20:26;;;;;;;4.03;2.72;;;;;;;21.92;48.82;100402.96;1733281;81;21224;-59
2021/04/14 11:22:55;;;;;;;35.68;22.58;;;;;;;21.92;48.80;100396.03;1733113;80;21188;-59
2021/04/14 11:25:29;;;;;;;52.27;33.88;;;;;;;21.92;48.76;100389.11;1736041;81;21687;-59
2021/04/14 11:28:06;;;;;;;40.15;27.15;;;;;;;21.94;48.73;100392.41;1735277;81;21270;-59
2021/04/14 11:30:54;;;;;;;56.95;37.70;;;;;;;21.93;48.71;100398.52;1762164;79;21220;-60
2021/04/14 11:33:36;;;;;;;62.45;39.15;;;;;;;21.92;48.69;100395.50;1770998;79;21195;-59
2021/04/14 11:36:03;;;;;;;64.77;40.52;;;;;;;21.92;48.67;100393.27;1770790;78;21225;-59
2021/04/14 11:38:34;;;;;;;59.27;39.90;;;;;;;21.91;48.66;100397.17;1777957;79;21193;-60
2021/04/14 11:41:13;;;;;;;57.67;39.80;;;;;;;21.90;48.62;100398.34;1773168;79;22047;-59
2021/04/14 11:43:40;;;;;;;57.43;37.15;;;;;;;21.87;48.61;100402.01;1771245;79;21237;-59
2021/04/14 11:46:32;;;;;;;51.30;35.40;;;;;;;21.85;48.54;100393.21;1776970;79;21866;-59